Terminal Aerodrome Forecast
Issued by NWS Grand Forks, ND

Home | Current Version | Previous Version | Text Only | Print | Product List | Glossary Off
Versions: 1 2 3 4 5 6 7 8 9 10 11 12 13 14 15 16 17 18 19 20

000
FTUS43 KFGF 261126
TAFGFK
TAF
KGFK 261126Z 2612/2712 33015KT P6SM SKC
     FM261500 34016G23KT P6SM FEW250
     FM270000 25010KT P6SM SCT150
     FM270800 33015G22KT P6SM FEW200=

USA.gov is the U.S. government's official web portal to all federal, state and local government web resources and services.